Latest Weather Observations for Mangalore

IDV60801

Issued at 1:05 pm EST Wednesday 23 July 2014 (issued every 30 minutes, with the page automatically refreshed every 10 minutes)

About weather observations | Map of weather stations | Latest weather observations for VIC | Other Formats
Station Details ID: 088109 Name: MANGALORE AIRPORT Lat: -36.89 Lon: 145.19 Height: 140.8 m
Data from the previous 72 hours. | See also: Recent months at Mangalore
Date/Time
EST
Temp
°C
App
Temp
°C
Dew
Point
Rel
Hum
%
Delta-T
°C
Wind Press
QNH
hPa
Press
MSL
hPa
Rain
since 9 am
mm
Dir
 
Spd
km/h
Gust
km/h
Spd
kts
Gust
kts
23/01:00pm 9.9 7.1 5.1 72 2.2 NNE 9 17 5 9 1021.9 - 0.0
23/12:30pm 9.9 7.4 6.6 80 1.5 NE 9 15 5 8 1022.4 - 0.0
23/12:00pm 8.2 6.6 8.1 99 0.0 SW 6 7 3 4 1023.2 1023.6 0.0
23/11:30am 6.3 4.7 6.2 99 0.0 SW 4 7 2 4 1023.8 - 0.0
23/11:16am 5.9 3.6 5.8 99 0.0 SW 7 9 4 5 1024.1 - 0.0
23/11:00am 5.0 2.5 4.9 99 0.0 SW 7 9 4 5 1024.4 - 0.0
23/10:30am 4.0 1.5 3.9 99 0.0 SW 6 9 3 5 1024.6 - 0.0
23/10:24am 4.3 1.9 4.2 99 0.0 SW 6 7 3 4 1024.6 - 0.0
23/10:21am 3.7 1.2 3.6 99 0.0 SW 6 7 3 4 1024.7 - 0.0
23/10:00am 2.2 -0.6 2.1 99 0.0 SW 6 7 3 4 1024.6 - 0.0
23/09:30am 1.4 -0.4 1.3 99 0.0 CALM 0 0 0 0 1024.6 - 0.0
23/09:00am 1.1 -1.5 1.0 99 0.0 SW 4 6 2 3 1024.8 1025.2 0.2
23/08:30am 0.1 -2.6 0.0 99 0.0 SW 4 9 2 5 1024.7 - 0.2
23/08:00am -0.5 -3.3 -0.6 99 0.0 SW 4 6 2 3 1024.5 - 0.2
23/07:30am -0.3 -3.5 -0.4 99 0.0 SW 6 9 3 5 1024.3 - 0.2
23/07:00am -0.4 -3.8 -0.5 99 0.0 SW 7 9 4 5 1024.1 - 0.2
23/06:30am -0.7 -2.8 -0.8 99 0.0 CALM 0 0 0 0 1023.7 - 0.2
23/06:00am -0.2 -2.6 -0.3 99 0.0 SW 2 6 1 3 1023.5 1023.9 0.2
23/05:30am 0.5 -2.6 0.4 99 0.0 SW 6 7 3 4 1023.4 - 0.2
23/05:00am 0.6 -2.4 0.5 99 0.0 SW 6 7 3 4 1023.2 - 0.2
23/04:30am 0.7 -2.5 0.6 99 0.0 SW 7 9 4 5 1023.4 - 0.2
23/04:22am 0.7 -2.5 0.6 99 0.0 SW 7 9 4 5 1023.4 - 0.2
23/04:19am 0.7 -2.3 0.6 99 0.0 SW 6 9 3 5 1023.4 - 0.2
23/04:00am 1.0 -2.0 0.9 99 0.0 SW 6 7 3 4 1023.4 - 0.2
23/03:30am 1.0 -2.2 0.9 99 0.0 SW 7 9 4 5 1023.8 - 0.2
23/03:00am 0.7 -2.9 0.6 99 0.0 SSW 9 13 5 7 1023.8 1024.2 0.2
23/02:30am 0.9 -2.3 0.8 99 0.0 SSW 7 11 4 6 1023.8 - 0.2
23/02:00am 0.8 -2.4 0.7 99 0.0 SSW 7 9 4 5 1023.9 - 0.0
23/01:30am 0.6 -2.6 0.5 99 0.0 SSW 7 11 4 6 1023.8 - 0.0
23/01:00am 0.3 -3.0 0.2 99 0.0 SSW 7 11 4 6 1023.9 - 0.0
23/12:30am 0.5 -2.8 0.4 99 0.0 SSW 7 11 4 6 1024.1 - 0.0
23/12:00am 0.8 -2.8 0.7 99 0.0 SSW 9 11 5 6 1024.7 1025.1 0.0
 
Date/Time
EST
Temp
°C
App
Temp
°C
Dew
Point
Rel
Hum
%
Delta-T
°C
Wind Press
QNH
hPa
Press
MSL
hPa
Rain
since 9 am
mm
Dir
 
Spd
km/h
Gust
km/h
Spd
kts
Gust
kts
22/11:30pm 1.1 -2.1 1.0 99 0.0 SSW 7 11 4 6 1024.8 - 0.0
22/11:00pm 2.4 -0.9 2.3 99 0.0 SSW 9 13 5 7 1025.0 - 0.0
22/10:51pm 2.7 -0.6 2.6 99 0.0 SW 9 13 5 7 1024.9 - 0.0
22/10:30pm 2.7 -0.2 2.6 99 0.0 SSW 7 9 4 5 1025.0 - 0.0
22/10:00pm 2.8 -0.1 2.5 98 0.1 SSW 7 9 4 5 1024.9 - 0.0
22/09:30pm 3.7 0.5 3.3 97 0.2 SW 9 13 5 7 1024.5 - 0.0
22/09:24pm 3.5 0.3 3.1 97 0.2 SW 9 11 5 6 1024.5 - 0.0
22/09:00pm 4.0 0.5 3.4 96 0.2 SW 11 13 6 7 1024.6 1025.0 0.0
22/08:30pm 4.0 0.8 2.8 92 0.5 SSW 9 13 5 7 1024.2 - 0.0
22/08:00pm 5.2 2.4 3.4 88 0.8 SSW 7 11 4 6 1024.1 - 0.0
22/07:30pm 5.8 2.7 3.6 86 0.9 SSW 9 13 5 7 1024.0 - 0.0
22/07:00pm 6.4 3.4 3.9 84 1.1 SSW 9 13 5 7 1023.9 - 0.0
22/06:30pm 7.0 4.0 4.1 82 1.3 SSW 9 13 5 7 1023.7 - 0.0
22/06:00pm 8.2 4.9 4.6 78 1.6 SSW 11 13 6 7 1023.4 1023.8 0.0
22/05:30pm 9.7 6.8 4.9 72 2.2 SSW 9 11 5 6 1023.4 - 0.0
22/05:00pm 11.0 8.6 5.1 67 2.7 SSW 7 9 4 5 1023.4 - 0.0
22/04:30pm 11.9 9.5 5.3 64 3.1 SSW 7 11 4 6 1023.4 - 0.0
22/04:00pm 12.3 9.1 5.0 61 3.4 SSW 11 13 6 7 1023.4 - 0.0
22/03:30pm 12.3 9.3 4.0 57 3.8 S 9 13 5 7 1023.5 - 0.0
22/03:00pm 12.4 10.0 5.3 62 3.3 S 7 13 4 7 1023.6 1024.0 0.0
22/02:30pm 12.0 8.9 3.8 57 3.7 SSW 9 13 5 7 1023.8 - 0.0
22/02:00pm 11.4 8.8 4.4 62 3.2 S 7 11 4 6 1023.9 - 0.0
22/01:30pm 11.0 8.6 4.2 63 3.1 W 6 9 3 5 1024.4 - 0.0
22/01:00pm 11.0 9.3 5.7 70 2.5 W 4 7 2 4 1024.8 - 0.0
22/12:30pm 9.9 7.7 6.1 77 1.8 W 7 9 4 5 1025.3 - 0.0
22/12:00pm 9.3 7.0 7.6 89 0.8 W 9 11 5 6 1025.8 1026.3 0.0
22/11:30am 8.3 6.2 8.2 99 0.0 WSW 9 13 5 7 1026.0 - 0.0
22/11:00am 7.2 4.8 7.1 99 0.0 W 9 11 5 6 1026.1 - 0.0
22/10:32am 6.8 4.7 6.7 99 0.0 SW 7 11 4 6 1026.3 - 0.0
22/10:30am 6.6 4.5 6.5 99 0.0 SW 7 11 4 6 1026.5 - 0.0
22/10:04am 5.4 2.6 5.3 99 0.0 WSW 9 13 5 7 1026.3 - 0.0
22/10:00am 5.0 2.1 4.9 99 0.0 WSW 9 13 5 7 1026.3 - 0.0
22/09:30am 3.7 0.6 3.6 99 0.0 SSW 9 11 5 6 1026.1 - 0.0
22/09:00am 3.1 -0.1 3.0 99 0.0 SSW 9 11 5 6 1025.8 1026.3 0.0
22/08:30am 2.4 -0.9 2.3 99 0.0 SSW 9 15 5 8 1025.7 - 0.0
22/08:00am 2.0 -1.4 1.9 99 0.0 SSW 9 13 5 7 1025.7 - 0.0
22/07:30am 1.3 -2.6 1.2 99 0.0 SSW 11 15 6 8 1025.5 - 0.0
22/07:00am 1.3 -2.2 1.2 99 0.0 SSW 9 13 5 7 1025.2 - 0.0
22/06:57am 1.0 -2.6 0.9 99 0.0 SSW 9 11 5 6 1025.2 - 0.0
22/06:51am 0.5 -3.1 0.4 99 0.0 SSW 9 11 5 6 1025.1 - 0.0
22/06:30am 0.2 -3.1 0.1 99 0.0 SSW 7 7 4 4 1024.9 - 0.0
22/06:24am 0.4 -2.7 0.3 99 0.0 SSW 6 7 3 4 1024.8 - 0.0
22/06:21am 0.4 -2.3 0.3 99 0.0 SSW 4 7 2 4 1024.8 - 0.0
22/06:00am 0.9 -1.0 0.8 99 0.0 CALM 0 0 0 0 1024.4 1024.8 0.0
22/05:30am 1.3 -1.6 1.2 99 0.0 SSW 6 7 3 4 1024.6 - 0.0
22/05:00am 1.0 -2.2 0.9 99 0.0 SSW 7 9 4 5 1024.3 - 0.0
22/04:30am 1.9 -1.1 1.8 99 0.0 SW 7 11 4 6 1024.4 - 0.0
22/04:00am 1.7 -2.1 1.6 99 0.0 SW 11 15 6 8 1024.3 - 0.0
22/03:30am 1.6 -2.6 1.5 99 0.0 SSW 13 17 7 9 1024.2 - 0.0
22/03:00am 1.0 -2.0 0.9 99 0.0 SSW 6 7 3 4 1024.3 1024.7 0.0
22/02:30am 1.2 -2.3 1.1 99 0.0 SSW 9 13 5 7 1024.4 - 0.0
22/02:00am 0.6 -3.0 0.5 99 0.0 SSW 9 13 5 7 1024.4 - 0.0
22/01:59am 0.6 -2.6 0.5 99 0.0 SSW 7 11 4 6 1024.4 - 0.0
22/01:30am 1.2 -1.0 1.1 99 0.0 SSW 2 9 1 5 1024.6 - 0.0
22/01:19am 1.0 -2.0 0.9 99 0.0 SSW 6 9 3 5 1024.6 - 0.0
22/01:00am 1.8 -1.6 1.7 99 0.0 SSW 9 13 5 7 1024.5 - 0.0
22/12:30am 2.1 -1.3 2.0 99 0.0 SW 9 11 5 6 1024.8 - 0.0
22/12:00am 2.5 -1.2 2.4 99 0.0 SSW 11 13 6 7 1024.9 1025.3 0.0
 
Date/Time
EST
Temp
°C
App
Temp
°C
Dew
Point
Rel
Hum
%
Delta-T
°C
Wind Press
QNH
hPa
Press
MSL
hPa
Rain
since 9 am
mm
Dir
 
Spd
km/h
Gust
km/h
Spd
kts
Gust
kts
21/11:30pm 2.6 -0.3 2.5 99 0.0 S 7 9 4 5 1024.9 - 0.0
21/11:00pm 2.8 -0.1 2.7 99 0.0 S 7 9 4 5 1025.0 - 0.0
21/10:30pm 3.2 0.0 3.1 99 0.0 S 9 11 5 6 1025.0 - 0.0
21/10:00pm 2.9 0.2 2.8 99 0.0 S 6 9 3 5 1024.9 - 0.0
21/09:30pm 3.6 0.5 3.5 99 0.0 NNE 9 9 5 5 1025.1 - 0.0
21/09:06pm 4.0 1.5 3.9 99 0.0 NNE 6 7 3 4 1025.0 - 0.0
21/09:00pm 4.0 1.3 3.9 99 0.0 NNE 7 7 4 4 1025.0 1025.4 0.0
21/08:30pm 4.3 3.0 3.9 97 0.2 CALM 0 0 0 0 1025.0 - 0.0
21/08:24pm 4.5 3.2 4.1 97 0.2 CALM 0 0 0 0 1025.0 - 0.0
21/08:00pm 4.9 3.6 4.3 96 0.3 CALM 0 6 0 3 1025.0 - 0.0
21/07:58pm 4.6 2.9 4.0 96 0.3 NNE 2 6 1 3 1024.9 - 0.0
21/07:44pm 4.9 2.9 4.2 95 0.3 NNE 4 6 2 3 1025.1 - 0.0
21/07:30pm 5.2 2.6 4.3 94 0.4 NNE 7 9 4 5 1025.0 - 0.0
21/07:00pm 6.3 4.1 5.4 94 0.4 NNE 6 7 3 4 1024.8 - 0.0
21/06:30pm 6.6 4.2 5.2 91 0.6 NNE 7 11 4 6 1024.6 - 0.0
21/06:00pm 7.3 5.3 4.6 83 1.2 NNE 4 6 2 3 1024.4 1024.8 0.0
21/05:30pm 8.4 6.1 5.5 82 1.3 NNE 7 9 4 5 1024.2 - 0.0
21/05:00pm 9.4 8.2 4.8 73 2.1 CALM 0 0 0 0 1024.2 - 0.0
21/04:30pm 9.9 8.7 4.7 70 2.3 CALM 0 0 0 0 1024.3 - 0.0
21/04:00pm 10.2 9.1 5.0 70 2.4 CALM 0 0 0 0 1024.3 - 0.0
21/03:30pm 10.4 8.0 4.5 67 2.7 NNE 6 9 3 5 1024.4 - 0.0
21/03:00pm 10.7 9.6 5.0 68 2.6 CALM 0 0 0 0 1024.4 1024.8 0.0
21/02:30pm 10.2 7.8 5.2 71 2.3 NNE 7 11 4 6 1024.4 - 0.0
21/02:00pm 10.6 8.3 4.9 68 2.6 NNE 6 9 3 5 1024.5 - 0.0
21/01:30pm 11.0 9.6 5.3 68 2.6 NNE 2 7 1 4 1024.7 - 0.0
21/01:00pm 10.2 7.9 4.6 68 2.5 NNE 6 9 3 5 1025.1 - 0.0
21/12:30pm 10.1 7.6 4.5 68 2.5 NNE 7 15 4 8 1025.4 - 0.0
21/12:00pm 9.8 7.4 5.4 74 2.0 NNE 7 13 4 7 1025.9 1026.4 0.0
21/11:30am 8.5 8.1 8.4 99 0.0 CALM 0 0 0 0 1026.5 - 0.0
21/11:00am 7.7 5.8 7.6 99 0.0 NNE 7 9 4 5 1026.8 - 0.0
21/10:39am 6.8 4.9 6.7 99 0.0 NNE 6 9 3 5 1026.9 - 0.0
21/10:30am 6.0 3.9 5.9 99 0.0 NNE 6 7 3 4 1026.9 - 0.0
21/10:20am 5.6 3.3 5.5 99 0.0 NNE 7 50 4 27 1027.0 - 0.0
21/10:00am 4.8 2.3 4.7 99 0.0 NNE 7 9 4 5 1027.0 - 0.0
21/09:30am 3.5 0.7 3.4 99 0.0 NNE 7 9 4 5 1026.9 - 0.0
21/09:23am 3.3 0.5 3.2 99 0.0 NNE 7 9 4 5 1026.9 - 0.0
21/09:08am 2.7 -0.2 2.6 99 0.0 NNE 7 9 4 5 1026.8 - 0.0
21/09:00am 2.5 -0.4 2.4 99 0.0 NNE 7 9 4 5 1026.7 1027.1 0.0
21/08:52am 2.3 -0.5 2.2 99 0.0 NNE 6 9 3 5 1026.7 - 0.0
21/08:38am 2.1 -0.7 2.0 99 0.0 NNE 6 7 3 4 1026.6 - 0.0
21/08:30am 1.9 -0.9 1.8 99 0.0 NNE 6 7 3 4 1026.5 - 0.0
21/08:00am 1.4 -0.4 1.3 99 0.0 CALM 0 0 0 0 1026.3 - 0.0
21/07:45am 1.2 -1.0 1.1 99 0.0 NNE 2 6 1 3 1026.3 - 0.0
21/07:32am 1.2 -1.9 1.1 99 0.0 NNE 7 9 4 5 1026.3 - 0.0
21/07:31am 1.2 -1.9 1.1 99 0.0 NNE 7 11 4 6 1026.3 - 0.0
21/07:30am 1.2 -1.9 1.1 99 0.0 NNE 7 11 4 6 1026.3 - 0.0
21/07:01am 0.8 -2.2 0.7 99 0.0 NNE 6 7 3 4 1026.0 - 0.0
21/07:00am 0.8 -2.2 0.7 99 0.0 NNE 6 7 3 4 1026.0 - 0.0
21/06:30am 0.7 -2.5 0.6 99 0.0 NNE 7 7 4 4 1026.0 - 0.0
21/06:14am 1.0 -0.8 0.9 99 0.0 CALM 0 0 0 0 1025.9 - 0.0
21/06:07am 1.1 -0.7 1.0 99 0.0 CALM 0 0 0 0 1025.9 - 0.0
21/06:03am 1.0 -0.8 0.9 99 0.0 CALM 0 0 0 0 1025.9 - 0.0
21/06:00am 1.0 -0.8 0.9 99 0.0 CALM 0 0 0 0 1025.9 1026.4 0.0
21/05:54am 0.6 -1.3 0.5 99 0.0 CALM 0 0 0 0 1025.9 - 0.0
21/05:30am 0.7 -1.2 0.6 99 0.0 CALM 0 0 0 0 1025.8 - 0.0
21/05:01am 0.7 -1.6 0.6 99 0.0 NNE 2 7 1 4 1025.8 - 0.0
21/05:00am 0.7 -1.6 0.6 99 0.0 NNE 2 7 1 4 1025.8 - 0.0
21/04:51am 0.9 -1.0 0.8 99 0.0 CALM 0 0 0 0 1025.9 - 0.0
21/04:41am 1.2 -0.6 1.1 99 0.0 CALM 0 0 0 0 1025.9 - 0.0
21/04:30am 1.3 -0.5 1.2 99 0.0 CALM 0 0 0 0 1025.9 - 0.0
21/04:08am 1.8 0.1 1.7 99 0.0 CALM 0 4 0 2 1025.9 - 0.0
21/04:00am 2.0 -0.4 1.9 99 0.0 NNE 4 7 2 4 1026.0 - 0.0
21/03:33am 2.3 -0.1 2.2 99 0.0 NNE 4 7 2 4 1026.0 - 0.0
21/03:30am 2.2 -0.2 2.1 99 0.0 NNE 4 6 2 3 1026.0 - 0.0
21/03:03am 1.7 0.0 1.6 99 0.0 CALM 0 0 0 0 1026.0 - 0.0
21/03:00am 1.8 0.1 1.7 99 0.0 CALM 0 0 0 0 1026.0 1026.5 0.0
21/02:30am 1.4 -0.4 1.3 99 0.0 CALM 0 0 0 0 1025.9 - 0.0
21/02:00am 1.9 0.2 1.8 99 0.0 CALM 0 4 0 2 1025.9 - 0.0
21/01:30am 2.3 -0.7 2.2 99 0.0 NNE 7 7 4 4 1026.0 - 0.0
21/01:29am 2.3 -0.7 2.2 99 0.0 NNE 7 7 4 4 1026.0 - 0.0
21/01:00am 2.5 0.9 2.4 99 0.0 CALM 0 0 0 0 1026.0 - 0.0
21/12:57am 2.1 0.4 2.0 99 0.0 CALM 0 0 0 0 1026.1 - 0.0
21/12:30am 2.4 0.8 2.3 99 0.0 CALM 0 2 0 1 1026.0 - 0.0
21/12:00am 2.9 0.0 2.8 99 0.0 NNE 7 9 4 5 1026.2 1026.7 0.0
 
Date/Time
EST
Temp
°C
App
Temp
°C
Dew
Point
Rel
Hum
%
Delta-T
°C
Wind Press
QNH
hPa
Press
MSL
hPa
Rain
since 9 am
mm
Dir
 
Spd
km/h
Gust
km/h
Spd
kts
Gust
kts
20/11:30pm 3.0 0.7 2.9 99 0.0 NNE 4 7 2 4 1026.3 - 0.0
20/11:00pm 2.9 0.2 2.6 98 0.1 NNE 6 11 3 6 1026.5 - 0.0
20/10:30pm 3.9 2.5 3.8 99 0.0 CALM 0 0 0 0 1026.8 - 0.0
20/10:00pm 3.4 1.9 3.1 98 0.1 CALM 0 0 0 0 1026.9 - 0.0
20/09:30pm 4.0 1.3 3.7 98 0.1 NNE 7 9 4 5 1026.8 - 0.0
20/09:21pm 3.9 1.7 3.6 98 0.1 NNE 4 9 2 5 1026.7 - 0.0
20/09:00pm 4.0 2.6 3.6 97 0.2 CALM 0 4 0 2 1026.7 1027.1 0.0
20/08:54pm 3.6 1.3 3.0 96 0.2 NNE 4 6 2 3 1026.7 - 0.0
20/08:30pm 4.5 3.2 3.9 96 0.3 CALM 0 0 0 0 1026.6 - 0.0
20/08:00pm 4.8 3.5 4.1 95 0.3 CALM 0 0 0 0 1026.7 - 0.0
20/07:30pm 5.5 4.3 4.8 95 0.3 CALM 0 0 0 0 1026.7 - 0.0
20/07:00pm 5.2 3.5 4.0 92 0.5 NNE 2 9 1 5 1026.7 - 0.0
20/06:30pm 6.1 3.8 4.7 91 0.6 NNE 6 6 3 3 1026.7 - 0.0
20/06:00pm 7.8 5.6 5.3 84 1.1 NNE 6 7 3 4 1026.3 1026.8 0.0
20/05:30pm 9.8 7.8 6.2 78 1.7 NNE 6 6 3 3 1026.2 - 0.0
20/05:00pm 9.9 7.7 6.1 77 1.8 NNE 7 7 4 4 1026.2 - 0.0
20/04:30pm 10.8 8.1 5.8 71 2.3 NNE 9 13 5 7 1026.0 - 0.0
20/04:00pm 11.6 8.6 5.9 68 2.7 NE 11 13 6 7 1025.9 - 0.0
20/03:30pm 12.2 8.9 6.3 67 2.8 NNE 13 17 7 9 1026.1 - 0.0
20/03:00pm 11.9 8.6 6.6 70 2.5 N 13 17 7 9 1026.2 1026.7 0.0
20/02:30pm 12.8 10.9 7.5 70 2.6 SSW 7 17 4 9 1026.2 - 0.0
20/02:00pm 11.8 9.6 5.4 65 3.0 SSW 6 9 3 5 1026.3 - 0.0
20/01:30pm 12.7 10.5 6.3 65 3.1 SSW 7 9 4 5 1026.6 - 0.0

Other Formats:

Comma delimited format used in spreadsheet applications
http://www.bom.gov.au/fwo/IDV60801/IDV60801.94874.axf

JavaScript Object Notation format (JSON) in row-major order
http://www.bom.gov.au/fwo/IDV60801/IDV60801.94874.json